2009 FANELE (2009017S20043)


On this page: IBTrACS data - Map and Plots - Positions - Intensities - Original source data

Summary

Start Jan 17
End Jan 26
Basin SI
LMI 115 kt
Sources jtwc_sh
reunion
In WMO? Yes
Previous storm 2009 ERIC (SI)
Previous in basin 2009 ERIC (SI)
Concurrent storms 2009 ERIC (SI)
2009 FANELE (SI)
2009 DOMINIC (SI)
2009 HETTIE (SP)
Next in basin 2009 DOMINIC (SI)
Next storm 2009 DOMINIC (SI)

top of page IBTrACS Data: File Access

No storm imagery available

top of page Plots:

Map of storm track will not appear if FTP is down
Time series of cyclone Maximum Sustained Wind will not appear if FTP is down
Time series of cyclone Minimum Central Pressure will not appear if FTP is down

top of page Track Data:Position

jtwc_sh reunion
Date Lat Lon Lat Lon
2009-01-17 06:00:00 -20.0 42.9
2009-01-17 12:00:00 -20.3 42.7
2009-01-17 18:00:00 -20.6 42.7 -20.6 42.6
2009-01-18 00:00:00 -20.9 42.6 -20.9 42.4
2009-01-18 06:00:00 -21.2 42.2 -21.2 42.3
2009-01-18 12:00:00 -21.7 42.0 -21.4 42.1
2009-01-18 18:00:00 -21.7 41.6 -21.5 41.4
2009-01-19 00:00:00 -21.5 41.2 -21.6 41.3
2009-01-19 06:00:00 -21.7 41.0 -21.9 41.1
2009-01-19 12:00:00 -22.0 40.9 -21.9 41.0
2009-01-19 18:00:00 -21.5 41.4 -21.6 41.4
2009-01-20 00:00:00 -21.1 42.0 -21.1 41.7
2009-01-20 06:00:00 -20.5 42.3 -20.4 42.3
2009-01-20 12:00:00 -20.1 42.6 -20.2 42.6
2009-01-20 18:00:00 -20.1 43.2 -20.1 43.2
2009-01-21 00:00:00 -20.6 43.6 -20.6 43.7
2009-01-21 06:00:00 -21.3 44.3 -21.4 44.4
2009-01-21 12:00:00 -22.4 45.3 -22.5 45.4
2009-01-21 18:00:00 -23.4 46.5 -23.0 46.4
2009-01-22 00:00:00 -23.9 47.9 -23.5 48.0
2009-01-22 06:00:00 -24.5 49.3 -24.1 49.3
2009-01-22 12:00:00 -25.3 50.5 -25.2 50.5
2009-01-22 18:00:00 -26.6 51.2 -26.5 51.3
2009-01-23 00:00:00 -27.9 51.9 -28.0 51.8
2009-01-23 06:00:00 -29.4 52.3 -29.5 52.1
jtwc_sh reunion
2009-01-23 12:00:00 -31.0 53.1 -30.5 52.8
2009-01-23 18:00:00 -31.5 53.8 -31.3 53.6
2009-01-24 00:00:00 -32.3 54.9
2009-01-24 06:00:00 -33.2 56.0
2009-01-24 12:00:00 -33.9 57.2
2009-01-24 18:00:00 -33.9 58.5
2009-01-25 00:00:00 -33.9 58.9
2009-01-25 06:00:00 -34.0 59.3
2009-01-25 12:00:00 -34.2 59.9
2009-01-25 18:00:00 -34.7 60.8
2009-01-26 00:00:00 -35.6 61.7
2009-01-26 06:00:00 -36.8 62.5

top of pageTrack Data:Intensity

jtwc_sh reunion
Date Wind Pres Wind Pres
2009-01-17 06:00:00 15. 1006.
2009-01-17 12:00:00 15. 1005.
2009-01-17 18:00:00 20. 1007. 20. 1003.
2009-01-18 00:00:00 25. 1004. 25. 1000.
2009-01-18 06:00:00 30. 1000. 30. 998.
2009-01-18 12:00:00 30. 1000. 35. 995.
2009-01-18 18:00:00 30. 1000. 35. 995.
2009-01-19 00:00:00 40. 993. 43. 990.
2009-01-19 06:00:00 40. 993. 50. 985.
2009-01-19 12:00:00 55. 982. 57. 978.
2009-01-19 18:00:00 65. 974. 65. 970.
2009-01-20 00:00:00 90. 956. 80. 955.
2009-01-20 06:00:00 100. 948. 90. 942.
2009-01-20 12:00:00 115. 937. 100. 930.
2009-01-20 18:00:00 105. 944. 90. 942.
2009-01-21 00:00:00 100. 948. 90. 942.
2009-01-21 06:00:00 80. 963. 75. 960.
2009-01-21 12:00:00 30. 1000. 40.
2009-01-21 18:00:00 30. 1000. 30.
2009-01-22 00:00:00 25. 1004. 33. 1001.
2009-01-22 06:00:00 30. 1000. 35. 1000.
2009-01-22 12:00:00 30. 1000. 40. 998.
2009-01-22 18:00:00 35. 996. 40. 998.
2009-01-23 00:00:00 35. 996. 43. 997.
2009-01-23 06:00:00 35. 996. 40. 996.
jtwc_sh reunion
2009-01-23 12:00:00 25. 1004. 37. 997.
2009-01-23 18:00:00 25. 1004. 35. 998.
2009-01-24 00:00:00 35. 998.
2009-01-24 06:00:00 33. 1000.
2009-01-24 12:00:00 30. 1002.
2009-01-24 18:00:00 28. 1005.
2009-01-25 00:00:00 27. 1006.
2009-01-25 06:00:00 25. 1008.
2009-01-25 12:00:00 23. 1009.
2009-01-25 18:00:00 20. 1010.
2009-01-26 00:00:00 20. 1010.
2009-01-26 06:00:00 20. 1011.

top of page Links to source data

Source Source file Format
jtwc_sh bsh092009.txt ATCF
reunion Best-Tracks-NewWMOFormat.txt:Line=2615:FANELE WMO (old format)